Latest Weather Observations for Browse Island

IDW60801

Issued at 11:32 pm WST Friday 22 May 2015 (issued every 30 minutes, with the page automatically refreshed every 10 minutes)

About weather observations | Map of weather stations | Latest weather observations for WA | Other Formats
Station Details ID: 200784 Name: BROWSE ISLAND Lat: -14.11 Lon: 123.55 Height: 3.7 m
Data from the previous 72 hours. | See also: Recent months for locations in Western Australia
Date/Time
WST
Temp
°C
App
Temp
°C
Dew
Point
Rel
Hum
%
Delta-T
°C
Wind Press
QNH
hPa
Press
MSL
hPa
Rain
since 9 am
mm
Dir
 
Spd
km/h
Gust
km/h
Spd
kts
Gust
kts
22/11:30pm 28.0 - - - - NE 9 9 5 5 1015.0 - -
22/11:00pm 27.7 - - - - NNE 9 11 5 6 1015.0 1014.9 -
22/10:30pm 28.0 - - - - N 11 - 6 - 1015.0 - -
22/10:00pm 27.6 - - - - N 7 - 4 - 1015.0 1015.0 -
22/09:30pm 28.0 - - - - N 7 - 4 - 1015.0 - -
22/09:00pm 27.8 - - - - NNE 9 - 5 - 1015.0 1015.0 -
22/08:30pm 28.0 - - - - NE 9 - 5 - 1015.0 - -
22/08:00pm 27.8 - - - - NE 9 - 5 - 1015.0 1015.1 -
22/07:30pm 28.0 - - - - NE 11 - 6 - 1014.0 - -
22/07:00pm 27.7 - - - - NE 11 - 6 - 1014.0 1014.5 -
22/06:30pm 28.0 - - - - NE 11 - 6 - 1014.0 - -
22/06:00pm 27.8 - - - - ENE 9 11 5 6 1014.0 1014.0 -
22/05:30pm 28.0 - - - - ENE 11 - 6 - 1013.0 - -
22/05:00pm 27.9 - - - - ENE 9 - 5 - 1013.0 1013.5 -
22/04:30pm 28.0 - - - - ESE 6 - 3 - 1013.0 - -
22/04:00pm 29.1 - - - - E 9 - 5 - 1013.0 1013.4 -
22/03:30pm 29.0 - - - - E 11 - 6 - 1013.0 - -
22/03:00pm 29.3 - - - - E 11 - 6 - 1013.0 1013.5 -
22/02:30pm 29.0 - - - - ENE 11 - 6 - 1013.0 - -
22/02:00pm 29.5 - - - - ENE 11 - 6 - 1013.0 1013.7 -
22/01:30pm 29.0 - - - - NE 11 - 6 - 1014.0 - -
22/01:00pm 30.1 - - - - ENE 7 - 4 - 1014.0 1014.2 -
22/12:30pm 29.0 - - - - ENE 9 - 5 - 1014.0 - -
22/12:00pm 29.2 - - - - NE 7 - 4 - 1014.0 1014.8 -
22/11:30am 29.0 - - - - NNW 7 - 4 - 1014.0 - -
22/11:00am 28.9 - - - - NW 7 - 4 - 1015.0 1014.9 -
22/10:30am 29.0 - - - - N 9 - 5 - 1015.0 - -
22/10:00am 28.2 - - - - NNW 9 - 5 - 1015.0 1015.5 -
22/09:30am 29.0 - - - - NNW 9 - 5 - 1015.0 - -
22/09:00am 28.1 - - - - NNW 11 - 6 - 1015.0 1015.7 -
22/08:30am 28.0 - - - - NNW 9 - 5 - 1015.0 - -
22/08:00am 27.5 - - - - NNW 7 - 4 - 1015.0 1015.4 -
22/07:30am 27.0 - - - - NW 7 - 4 - 1015.0 - -
22/07:00am 27.2 - - - - NW 7 - 4 - 1015.0 1015.1 -
22/06:30am 27.0 - - - - NNW 7 - 4 - 1014.0 - -
22/06:00am 27.2 - - - - NNW 7 9 4 5 1014.0 1014.5 -
22/05:30am 27.0 - - - - NNW 9 - 5 - 1014.0 - -
22/05:00am 27.2 - - - - N 11 - 6 - 1014.0 1013.9 -
22/04:30am 27.0 - - - - N 9 - 5 - 1014.0 - -
22/04:00am 27.2 - - - - NNW 7 - 4 - 1013.0 1013.8 -
22/03:30am 27.0 - - - - WNW 7 - 4 - 1014.0 - -
22/03:00am 27.4 - - - - W 9 - 5 - 1014.0 1014.3 -
22/02:30am 28.0 - - - - NW 6 - 3 - 1014.0 - -
22/02:00am 27.4 - - - - N 11 - 6 - 1014.0 1014.2 -
22/01:30am 27.0 - - - - N 11 - 6 - 1014.0 - -
22/01:00am 27.4 - - - - N 11 - 6 - 1014.0 1014.4 -
22/12:30am 28.0 - - - - N 7 - 4 - 1014.0 - -
22/12:00am 27.4 - - - - N 7 7 4 4 1015.0 1014.9 -
 
Date/Time
WST
Temp
°C
App
Temp
°C
Dew
Point
Rel
Hum
%
Delta-T
°C
Wind Press
QNH
hPa
Press
MSL
hPa
Rain
since 9 am
mm
Dir
 
Spd
km/h
Gust
km/h
Spd
kts
Gust
kts
21/11:30pm 27.0 - - - - N 7 - 4 - 1015.0 - -
21/11:00pm 27.5 - - - - N 9 - 5 - 1015.0 1015.1 -
21/10:30pm 28.0 - - - - N 7 - 4 - 1015.0 - -
21/10:00pm 27.5 - - - - WNW 2 - 1 - 1015.0 1015.3 -
21/09:30pm 27.0 - - - - CALM 0 - 0 - 1015.0 - -
21/09:00pm 27.5 - - - - W 6 - 3 - 1015.0 1015.2 -
21/08:30pm 28.0 - - - - WNW 4 - 2 - 1015.0 - -
21/08:00pm 27.8 - - - - WNW 6 - 3 - 1015.0 1015.1 -
21/07:30pm 28.0 - - - - N 7 - 4 - 1014.0 - -
21/07:00pm 27.9 - - - - NNE 9 - 5 - 1014.0 1014.5 -
21/06:30pm 28.0 - - - - NE 9 - 5 - 1014.0 - -
21/06:00pm 27.9 - - - - ENE 7 - 4 - 1014.0 1014.1 -
21/05:30pm 28.0 - - - - ENE 9 - 5 - 1013.0 - -
21/05:00pm 28.4 - - - - ENE 9 - 5 - 1013.0 1013.4 -
21/04:30pm 29.0 - - - - SE 6 - 3 - 1013.0 - -
21/04:00pm 29.1 - - - - SSE 7 - 4 - 1013.0 1012.9 -
21/03:30pm 29.0 - - - - S 9 - 5 - 1012.0 - -
21/03:00pm 29.2 - - - - SSE 11 - 6 - 1012.0 1012.7 -
21/02:30pm 30.0 - - - - SSE 11 - 6 - 1012.0 - -
21/02:00pm 29.0 - - - - SSE 11 - 6 - 1013.0 1012.9 -
21/01:30pm 30.0 - - - - SSE 13 - 7 - 1013.0 - -
21/01:00pm 29.7 - - - - SSE 13 - 7 - 1013.0 1013.2 -
21/12:30pm 29.0 - - - - SSE 13 - 7 - 1013.0 - -
21/12:00pm 29.6 - - - - SE 11 - 6 - 1014.0 1014.1 -
21/11:30am 29.0 - - - - SSE 11 - 6 - 1014.0 - -
21/11:00am 28.9 - - - - SSE 9 - 5 - 1015.0 1014.9 -
21/10:30am 28.0 - - - - S 13 - 7 - 1015.0 - -
21/10:00am 28.5 - - - - S 11 - 6 - 1015.0 1015.6 -
21/09:30am 29.0 - - - - S 9 - 5 - 1015.0 - -
21/09:00am 28.6 - - - - S 9 - 5 - 1016.0 1015.9 -
21/08:30am 29.0 - - - - SSE 7 - 4 - 1016.0 - -
21/08:00am 28.3 - - - - SSE 7 - 4 - 1015.0 1015.7 -
21/07:30am 28.0 - - - - SE 9 - 5 - 1015.0 - -
21/07:00am 27.5 - - - - SE 7 - 4 - 1015.0 1015.3 -
21/06:30am 27.0 - - - - SSE 9 - 5 - 1015.0 - -
21/06:00am 27.2 - - - - ESE 7 - 4 - 1015.0 1014.9 -
21/05:30am 27.0 - - - - SE 9 - 5 - 1014.0 - -
21/05:00am 27.3 - - - - SE 6 - 3 - 1014.0 1014.5 -
21/04:30am 27.0 - - - - ESE 7 - 4 - 1014.0 - -
21/04:00am 27.4 - - - - ESE 9 - 5 - 1014.0 1014.3 -
21/03:30am 27.0 - - - - ESE 13 - 7 - 1014.0 - -
21/03:00am 27.2 - - - - ESE 13 - 7 - 1014.0 1014.5 -
21/02:30am 27.0 - - - - ESE 13 - 7 - 1014.0 - -
21/02:00am 27.2 - - - - ESE 13 - 7 - 1014.0 1014.7 -
21/01:30am 27.0 - - - - ESE 13 - 7 - 1015.0 - -
21/01:00am 27.3 - - - - ESE 11 - 6 - 1015.0 1015.1 -
21/12:30am 28.0 - - - - SE 11 - 6 - 1015.0 - -
21/12:00am 27.5 - - - - ESE 7 - 4 - 1015.0 1015.4 -
 
Date/Time
WST
Temp
°C
App
Temp
°C
Dew
Point
Rel
Hum
%
Delta-T
°C
Wind Press
QNH
hPa
Press
MSL
hPa
Rain
since 9 am
mm
Dir
 
Spd
km/h
Gust
km/h
Spd
kts
Gust
kts
20/11:30pm 28.0 - - - - ESE 7 - 4 - 1015.0 - -
20/11:00pm 27.6 - - - - ESE 7 - 4 - 1015.0 1015.6 -
20/10:30pm 28.0 - - - - SE 7 - 4 - 1016.0 - -
20/10:00pm 27.7 - - - - SE 7 - 4 - 1016.0 1016.0 -
20/09:30pm 28.0 - - - - CALM 0 - 0 - 1016.0 - -
20/09:00pm 27.7 - - - - E 4 - 2 - 1016.0 1016.0 -
20/08:30pm 28.0 - - - - E 7 - 4 - 1016.0 - -
20/08:00pm 27.9 - - - - ESE 7 - 4 - 1015.0 1015.7 -
20/07:30pm 28.0 - - - - ESE 7 - 4 - 1015.0 - -
20/07:00pm 27.9 - - - - ESE 7 - 4 - 1015.0 1015.1 -
20/06:30pm 28.0 - - - - E 7 - 4 - 1014.0 - -
20/06:00pm 28.0 - - - - E 9 - 5 - 1014.0 1014.3 -
20/05:30pm 28.0 - - - - ESE 11 - 6 - 1014.0 - -
20/05:00pm 28.3 - - - - SE 11 - 6 - 1014.0 1013.9 -
20/04:30pm 29.0 - - - - SE 11 - 6 - 1013.0 - -
20/04:00pm 28.7 - - - - SE 13 - 7 - 1013.0 1013.4 -
20/03:30pm 29.0 - - - - SE 11 - 6 - 1013.0 - -
20/03:00pm 29.0 - - - - SE 13 - 7 - 1013.0 1013.0 -
20/02:30pm 29.0 - - - - SE 13 - 7 - 1013.0 - -
20/02:00pm 29.6 - - - - SE 13 - 7 - 1013.0 1013.0 -
20/01:30pm 30.0 - - - - SE 15 - 8 - 1013.0 - -
20/01:00pm 29.5 - - - - SE 15 - 8 - 1013.0 1013.1 -
20/12:30pm 29.0 - - - - SE 15 - 8 - 1013.0 - -
20/12:00pm 29.9 - - - - SE 17 - 9 - 1013.0 1013.7 -
20/11:30am 30.0 - - - - SE 17 - 9 - 1014.0 - -
20/11:00am 29.0 - - - - SE 20 - 11 - 1014.0 1014.5 -
20/10:30am 29.0 - - - - SE 20 - 11 - 1015.0 - -
20/10:00am 28.8 - - - - SE 20 - 11 - 1015.0 1015.1 -
20/09:30am 29.0 - - - - SE 20 - 11 - 1015.0 - -
20/09:00am 29.0 - - - - SE 24 - 13 - 1015.0 1015.3 -
20/08:30am 29.0 - - - - SE 26 - 14 - 1015.0 - -
20/08:00am 28.2 - - - - SE 26 - 14 - 1014.0 1014.8 -
20/07:30am 28.0 - - - - SE 24 - 13 - 1014.0 - -
20/07:00am 28.1 - - - - SE 24 - 13 - 1014.0 1014.1 -
20/06:30am 28.0 - - - - SE 22 - 12 - 1013.0 - -
20/06:00am 28.1 - - - - SE 24 - 13 - 1013.0 1013.7 -
20/05:30am 28.0 - - - - SSE 24 - 13 - 1013.0 - -
20/05:00am 28.0 - - - - SSE 24 - 13 - 1013.0 1013.4 -
20/04:30am 28.0 - - - - SSE 26 - 14 - 1013.0 - -
20/04:00am 28.0 - - - - SSE 24 - 13 - 1013.0 1013.3 -
20/03:30am 28.0 - - - - S 24 - 13 - 1013.0 - -
20/03:00am 28.3 - - - - S 24 - 13 - 1013.0 1013.4 -
20/02:30am 28.0 - - - - SSE 22 - 12 - 1013.0 - -
20/02:00am 28.2 - - - - S 24 - 13 - 1013.0 1013.4 -
20/01:30am 28.0 - - - - S 24 - 13 - 1013.0 - -
20/01:00am 28.3 - - - - SSE 24 - 13 - 1014.0 1013.9 -
20/12:30am 28.0 - - - - S 22 - 12 - 1014.0 - -
20/12:00am 28.3 - - - - S 22 - 12 - 1014.0 1014.1 -

Other Formats:

Comma delimited format used in spreadsheet applications
http://www.bom.gov.au/fwo/IDW60801/IDW60801.94103.axf

JavaScript Object Notation format (JSON) in row-major order
http://www.bom.gov.au/fwo/IDW60801/IDW60801.94103.json